Terminal Aerodrome Forecast
Issued by NWS Tuscon, AZ

Home | Current Version | Previous Version | Text Only | Print | Product List | Glossary On
Versions: 1 2 3 4 5 6 7 8 9 10 11 12 13 14 15 16 17
000
FTUS45 KTWC 200500
TAFDUG
TAF
KDUG 200536Z 2006/2106 17006KT P6SM VCSH SCT070 BKN120
     FM200700 01005KT P6SM SCT100
     FM201900 30010G18KT P6SM SCT100 SCT200=

USA.gov is the U.S. government's official web portal to all federal, state and local government web resources and services.